createdAt,value
2018-07-01T00:00:29.555Z,61.33
2018-07-01T00:01:00.775Z,61.11
2018-07-01T00:01:31.972Z,62.02
2018-07-01T00:02:04.387Z,61.82
2018-07-01T00:02:35.660Z,61.41
2018-07-01T00:03:08.017Z,61.12
2018-07-01T00:03:39.986Z,61.66
2018-07-01T00:04:11.270Z,61.63
2018-07-01T00:04:43.441Z,61.81
2018-07-01T00:05:14.706Z,61.23
2018-07-01T00:05:45.904Z,61.13
2018-07-01T00:06:17.113Z,61.72
2018-07-01T00:06:48.283Z,61.60
2018-07-01T00:07:19.501Z,61.41
2018-07-01T00:07:50.705Z,61.96
2018-07-01T00:08:21.964Z,61.16
2018-07-01T00:08:53.217Z,61.50
2018-07-01T00:09:25.020Z,61.38
2018-07-01T00:09:56.244Z,61.67
2018-07-01T00:10:27.440Z,61.76
2018-07-01T00:10:59.185Z,61.44
2018-07-01T00:11:31.506Z,60.88
2018-07-01T00:12:02.685Z,61.30
2018-07-01T00:12:33.893Z,61.32
2018-07-01T00:13:05.092Z,60.81
2018-07-01T00:13:36.300Z,60.69
2018-07-01T00:14:08.308Z,60.44
2018-07-01T00:14:39.548Z,60.60
2018-07-01T00:15:11.794Z,60.49
2018-07-01T00:15:42.984Z,61.30
2018-07-01T00:16:14.282Z,60.67
2018-07-01T00:16:45.525Z,60.24
2018-07-01T00:17:16.756Z,60.38
2018-07-01T00:17:47.933Z,60.63
2018-07-01T00:18:19.157Z,59.67
2018-07-01T00:18:50.368Z,60.32
2018-07-01T00:19:22.281Z,60.65
2018-07-01T00:19:53.457Z,59.82
2018-07-01T00:20:24.677Z,59.94
2018-07-01T00:20:55.920Z,60.90
2018-07-01T00:21:27.188Z,60.71
2018-07-01T00:21:58.369Z,61.02
2018-07-01T00:22:29.548Z,60.94
2018-07-01T00:23:00.775Z,60.50
2018-07-01T00:23:31.980Z,60.20
2018-07-01T00:24:03.189Z,60.32
2018-07-01T00:24:34.386Z,60.74
2018-07-01T00:25:05.569Z,60.93
2018-07-01T00:25:36.820Z,61.20
2018-07-01T00:26:08.070Z,60.44
2018-07-01T00:26:39.884Z,60.99
2018-07-01T00:27:11.053Z,60.89
2018-07-01T00:27:42.319Z,61.52
2018-07-01T00:28:13.555Z,60.83
2018-07-01T00:28:44.794Z,61.75
2018-07-01T00:29:16.045Z,61.52
2018-07-01T00:29:47.292Z,61.18
2018-07-01T00:30:19.620Z,61.26
2018-07-01T00:30:50.856Z,61.67
2018-07-01T00:31:22.042Z,60.87
2018-07-01T00:31:53.216Z,61.26
2018-07-01T00:32:24.388Z,61.49
2018-07-01T00:32:55.616Z,61.22
2018-07-01T00:33:26.880Z,62.22
2018-07-01T00:33:58.140Z,61.99
2018-07-01T00:34:29.365Z,61.45
2018-07-01T00:35:00.552Z,61.87
2018-07-01T00:35:31.723Z,62.55
2018-07-01T00:36:02.908Z,61.80
2018-07-01T00:36:34.092Z,61.78
2018-07-01T00:37:05.313Z,62.58
2018-07-01T00:37:36.533Z,62.63
2018-07-01T00:38:07.717Z,62.72
2018-07-01T00:38:38.887Z,63.14
2018-07-01T00:39:10.054Z,63.37
2018-07-01T00:39:41.233Z,62.29
2018-07-01T00:40:12.402Z,63.49
2018-07-01T00:40:43.609Z,63.80
2018-07-01T00:41:14.829Z,63.41
2018-07-01T00:41:46.009Z,63.04
2018-07-01T00:42:17.216Z,62.94
2018-07-01T00:42:48.396Z,63.08
2018-07-01T00:43:19.625Z,63.19
2018-07-01T00:43:50.852Z,63.59
2018-07-01T00:44:22.034Z,63.33
2018-07-01T00:44:53.264Z,63.46
2018-07-01T00:45:24.509Z,64.22
2018-07-01T00:45:55.755Z,63.43
2018-07-01T00:46:27.058Z,63.72
2018-07-01T00:46:58.705Z,64.31
2018-07-01T00:47:29.925Z,63.59
2018-07-01T00:48:01.131Z,63.76
2018-07-01T00:48:34.514Z,63.45
2018-07-01T00:49:05.701Z,63.73
2018-07-01T00:49:36.880Z,64.28
2018-07-01T00:50:08.064Z,64.39
2018-07-01T00:50:39.236Z,63.66
2018-07-01T00:51:10.409Z,63.33
2018-07-01T00:51:41.703Z,63.24
2018-07-01T00:52:12.897Z,63.41
2018-07-01T00:52:44.146Z,63.46
2018-07-01T00:53:16.297Z,63.44
2018-07-01T00:53:47.529Z,63.44
2018-07-01T00:54:18.773Z,63.38
2018-07-01T00:54:51.246Z,62.69
2018-07-01T00:55:22.422Z,63.72
2018-07-01T00:55:53.655Z,63.54
2018-07-01T00:56:24.878Z,62.65
2018-07-01T00:56:56.129Z,63.30
2018-07-01T00:57:27.533Z,63.69
2018-07-01T00:57:58.720Z,63.49
2018-07-01T00:58:29.928Z,63.13
2018-07-01T00:59:01.132Z,63.12
2018-07-01T00:59:32.308Z,63.25
2018-07-01T01:00:03.549Z,62.54
2018-07-01T01:00:34.817Z,62.70
2018-07-01T01:02:19.204Z,63.78
2018-07-01T01:03:29.993Z,62.55
2018-07-01T01:04:02.914Z,62.82
2018-07-01T01:04:34.180Z,62.58
2018-07-01T01:08:44.281Z,62.76
2018-07-01T01:09:15.495Z,62.12
2018-07-01T01:09:46.745Z,62.58
2018-07-01T01:10:18.641Z,62.94
2018-07-01T01:10:49.860Z,61.93
2018-07-01T01:11:21.141Z,62.64
2018-07-01T01:11:52.335Z,62.39
2018-07-01T01:12:23.580Z,62.48
2018-07-01T01:12:54.770Z,61.96
2018-07-01T01:13:25.961Z,62.03
2018-07-01T01:13:57.202Z,62.18
2018-07-01T01:14:28.393Z,62.13
2018-07-01T01:14:59.572Z,62.26
2018-07-01T01:15:32.505Z,61.86
2018-07-01T01:16:03.690Z,62.44
2018-07-01T01:16:34.949Z,62.49
2018-07-01T01:17:06.146Z,62.77
2018-07-01T01:17:37.350Z,62.79
2018-07-01T01:18:08.521Z,62.43
2018-07-01T01:18:39.745Z,62.58
2018-07-01T01:19:10.993Z,61.95
2018-07-01T01:19:42.221Z,62.35
2018-07-01T01:20:13.500Z,62.59
2018-07-01T01:20:44.716Z,62.77
2018-07-01T01:21:15.932Z,61.95
2018-07-01T01:21:47.200Z,62.25
2018-07-01T01:22:18.407Z,62.63
2018-07-01T01:22:49.651Z,62.81
2018-07-01T01:23:20.922Z,62.15
2018-07-01T01:23:52.117Z,61.97
2018-07-01T01:24:23.293Z,62.31
2018-07-01T01:24:54.517Z,62.61
2018-07-01T01:25:25.809Z,62.67
2018-07-01T01:25:57.041Z,62.92
2018-07-01T01:26:28.293Z,62.41
2018-07-01T01:26:59.552Z,62.90
2018-07-01T01:27:30.764Z,62.64
2018-07-01T01:28:01.987Z,62.77
2018-07-01T01:28:33.189Z,62.20
2018-07-01T01:29:04.368Z,62.94
2018-07-01T01:29:35.545Z,62.80
2018-07-01T01:30:06.752Z,63.22
2018-07-01T01:30:37.989Z,62.72
2018-07-01T01:31:09.173Z,63.17
2018-07-01T01:31:40.348Z,62.81
2018-07-01T01:32:11.535Z,63.19
2018-07-01T01:32:42.709Z,62.70
2018-07-01T01:33:13.881Z,63.23
2018-07-01T01:33:45.097Z,62.85
2018-07-01T01:34:16.371Z,62.83
2018-07-01T01:34:47.624Z,62.94
2018-07-01T01:35:18.841Z,63.70
2018-07-01T01:35:50.260Z,63.65
2018-07-01T01:38:55.883Z,64.42
2018-07-01T01:39:27.163Z,65.02
2018-07-01T01:39:58.361Z,65.79
2018-07-01T01:40:30.264Z,64.73
2018-07-01T01:41:01.535Z,65.03
2018-07-01T01:41:32.728Z,64.71
2018-07-01T01:42:04.273Z,64.84
2018-07-01T01:42:35.572Z,64.77
2018-07-01T01:43:06.775Z,65.30
2018-07-01T01:43:37.950Z,65.35
2018-07-01T01:44:09.185Z,64.43
2018-07-01T01:45:53.832Z,64.58
2018-07-01T01:46:25.124Z,64.34
2018-07-01T01:46:56.379Z,63.94
2018-07-01T01:47:27.620Z,64.86
2018-07-01T01:47:58.852Z,64.06
2018-07-01T01:48:30.050Z,64.71
2018-07-01T01:49:01.217Z,63.85
2018-07-01T01:49:32.473Z,63.79
2018-07-01T01:50:03.677Z,63.15
2018-07-01T01:50:34.913Z,64.35
2018-07-01T01:51:06.481Z,64.03
2018-07-01T01:51:37.732Z,64.13
2018-07-01T01:52:09.010Z,64.43
2018-07-01T01:52:40.219Z,64.50
2018-07-01T01:53:12.218Z,64.41
2018-07-01T01:53:43.408Z,64.13
2018-07-01T01:54:14.633Z,64.06
2018-07-01T01:54:45.824Z,63.82
2018-07-01T01:55:17.066Z,63.95
2018-07-01T01:55:48.313Z,64.37
2018-07-01T01:56:19.560Z,63.64
2018-07-01T01:56:50.757Z,64.31
2018-07-01T01:57:21.961Z,64.46
2018-07-01T01:57:53.202Z,64.04
2018-07-01T01:58:24.395Z,63.60
2018-07-01T01:58:55.605Z,64.34
2018-07-01T01:59:26.773Z,63.79
2018-07-01T01:59:59.218Z,64.56
2018-07-01T02:00:30.397Z,63.71
2018-07-01T02:01:01.621Z,63.60
2018-07-01T02:01:32.818Z,64.11
2018-07-01T02:02:03.995Z,63.32
2018-07-01T02:02:35.171Z,62.77
2018-07-01T02:03:06.356Z,62.77
2018-07-01T02:03:37.608Z,62.76
2018-07-01T02:04:08.844Z,63.17
2018-07-01T02:04:40.037Z,63.56
2018-07-01T02:05:11.218Z,63.53
2018-07-01T02:05:42.392Z,62.99
2018-07-01T02:06:13.646Z,63.07
2018-07-01T02:06:44.824Z,62.58
2018-07-01T02:07:16.008Z,63.05
2018-07-01T02:07:47.193Z,62.78
2018-07-01T02:08:18.427Z,63.15
2018-07-01T02:08:49.619Z,62.99
2018-07-01T02:09:20.862Z,62.92
2018-07-01T02:09:52.048Z,63.34
2018-07-01T02:10:23.268Z,62.80
2018-07-01T02:10:54.500Z,62.81
2018-07-01T02:11:25.706Z,63.49
2018-07-01T02:11:56.891Z,63.49
2018-07-01T02:12:28.149Z,63.34
2018-07-01T02:12:59.411Z,62.93
2018-07-01T02:13:30.649Z,62.98
2018-07-01T02:14:01.845Z,63.66
2018-07-01T02:14:33.073Z,63.11
2018-07-01T02:15:04.314Z,63.65
2018-07-01T02:15:35.561Z,62.96
2018-07-01T02:16:07.730Z,63.14
2018-07-01T02:16:38.948Z,63.15
2018-07-01T02:17:10.160Z,63.10
2018-07-01T02:17:41.342Z,63.62
2018-07-01T02:18:12.512Z,62.90
2018-07-01T02:18:43.700Z,62.92
2018-07-01T02:19:14.863Z,62.50
2018-07-01T02:19:46.040Z,62.72
2018-07-01T02:20:17.237Z,63.04
2018-07-01T02:20:48.505Z,63.03
2018-07-01T02:21:19.952Z,62.91
2018-07-01T02:21:51.129Z,62.04
2018-07-01T02:22:22.320Z,62.24
2018-07-01T02:22:53.593Z,62.61
2018-07-01T02:23:24.796Z,61.62
2018-07-01T02:23:56.042Z,61.74
2018-07-01T02:24:27.248Z,62.03
2018-07-01T02:24:58.473Z,61.38
2018-07-01T02:25:29.680Z,62.36
2018-07-01T02:26:00.948Z,62.05
2018-07-01T02:26:32.184Z,61.43
2018-07-01T02:27:03.376Z,61.58
2018-07-01T02:27:34.601Z,61.66
2018-07-01T02:28:05.863Z,61.68
2018-07-01T02:28:37.111Z,62.25
2018-07-01T02:29:08.346Z,62.08
2018-07-01T02:29:40.280Z,62.16
2018-07-01T02:30:11.513Z,61.99
2018-07-01T02:30:42.696Z,62.44
2018-07-01T02:31:13.892Z,62.57
2018-07-01T02:31:45.853Z,62.44
2018-07-01T02:32:17.108Z,62.44
2018-07-01T02:32:48.494Z,62.54
2018-07-01T02:33:20.296Z,62.64
2018-07-01T02:33:52.329Z,62.88
2018-07-01T02:34:23.626Z,63.00
2018-07-01T02:34:54.952Z,63.17
2018-07-01T02:35:26.319Z,63.76
2018-07-01T02:35:57.643Z,63.90
2018-07-01T02:36:28.925Z,64.66
2018-07-01T02:37:00.350Z,63.91
2018-07-01T02:37:31.753Z,63.82
2018-07-01T02:38:02.996Z,63.56
2018-07-01T02:38:34.292Z,63.46
2018-07-01T02:39:05.588Z,64.33
2018-07-01T02:39:36.917Z,63.44
2018-07-01T02:40:08.263Z,63.79
2018-07-01T02:40:39.641Z,63.72
2018-07-01T02:41:10.987Z,63.80
2018-07-01T02:41:42.488Z,63.50
2018-07-01T02:42:13.842Z,63.39
2018-07-01T02:42:45.251Z,63.76
2018-07-01T02:43:16.601Z,64.15
2018-07-01T02:43:47.994Z,63.59
2018-07-01T02:44:19.276Z,63.88
2018-07-01T02:44:50.686Z,63.85
2018-07-01T02:45:21.991Z,64.61
2018-07-01T02:45:53.295Z,64.17
2018-07-01T02:46:24.592Z,63.56
2018-07-01T02:46:55.950Z,64.78
2018-07-01T02:47:27.232Z,64.03
2018-07-01T02:47:58.446Z,64.27
2018-07-01T02:48:29.794Z,64.17
2018-07-01T02:49:01.142Z,64.53
2018-07-01T02:49:32.521Z,64.12
2018-07-01T02:50:03.789Z,64.54
2018-07-01T02:50:35.371Z,64.03
2018-07-01T02:51:06.671Z,64.81
2018-07-01T02:51:37.977Z,64.71
2018-07-01T02:52:09.285Z,64.33
2018-07-01T02:52:40.577Z,64.23
2018-07-01T02:53:11.924Z,64.81
2018-07-01T02:53:43.321Z,64.76
2018-07-01T02:54:14.687Z,64.81
2018-07-01T02:54:45.993Z,64.27
2018-07-01T02:55:17.301Z,64.18
2018-07-01T02:55:48.676Z,64.21
2018-07-01T02:56:20.025Z,64.67
2018-07-01T02:56:51.301Z,65.31
2018-07-01T02:57:22.614Z,64.26
2018-07-01T02:57:53.949Z,65.29
2018-07-01T02:58:25.188Z,65.18
2018-07-01T02:58:56.446Z,64.42
2018-07-01T02:59:27.912Z,64.52
2018-07-01T02:59:59.219Z,64.46
2018-07-01T03:00:30.505Z,64.45
2018-07-01T03:01:01.777Z,64.24
2018-07-01T03:01:33.053Z,64.31
2018-07-01T03:02:04.285Z,63.86
2018-07-01T03:02:35.469Z,63.91
2018-07-01T03:03:06.669Z,64.16
2018-07-01T03:03:37.878Z,64.73
2018-07-01T03:04:09.122Z,64.36
2018-07-01T03:04:40.364Z,63.60
2018-07-01T03:05:11.624Z,63.82
2018-07-01T03:05:42.868Z,64.17
2018-07-01T03:06:14.057Z,63.03
2018-07-01T03:06:45.238Z,62.55
2018-07-01T03:07:16.473Z,61.76
2018-07-01T03:07:47.665Z,62.06
2018-07-01T03:08:18.849Z,61.39
2018-07-01T03:08:50.076Z,61.93
2018-07-01T03:09:21.305Z,61.42
2018-07-01T03:09:52.539Z,60.74
2018-07-01T03:10:23.731Z,60.92
2018-07-01T03:10:54.927Z,60.28
2018-07-01T03:11:26.114Z,60.15
2018-07-01T03:11:57.305Z,60.13
2018-07-01T03:12:28.545Z,60.76
2018-07-01T03:12:59.802Z,60.14
2018-07-01T03:13:30.994Z,61.06
2018-07-01T03:14:02.174Z,61.08
2018-07-01T03:14:33.403Z,60.80
2018-07-01T03:15:04.576Z,61.59
2018-07-01T03:15:35.753Z,61.30
2018-07-01T03:16:06.993Z,61.51
2018-07-01T03:16:38.185Z,62.02
2018-07-01T03:17:09.421Z,60.64
2018-07-01T03:17:40.638Z,60.38
2018-07-01T03:18:11.826Z,60.24
2018-07-01T03:18:43.056Z,60.50
2018-07-01T03:19:14.314Z,60.24
2018-07-01T03:19:45.561Z,59.34
2018-07-01T03:20:16.748Z,59.31
2018-07-01T03:20:48.008Z,59.67
2018-07-01T03:21:19.237Z,59.30
2018-07-01T03:21:50.434Z,59.01
2018-07-01T03:22:21.653Z,58.44
2018-07-01T03:22:52.833Z,58.60
2018-07-01T03:23:24.061Z,58.08
2018-07-01T03:23:55.244Z,57.78
2018-07-01T03:24:26.414Z,57.81
2018-07-01T03:24:57.647Z,56.41
2018-07-01T03:25:28.885Z,57.00
2018-07-01T03:26:00.062Z,56.47
2018-07-01T03:26:31.289Z,57.31
2018-07-01T03:27:02.555Z,57.42
2018-07-01T03:27:33.744Z,56.66
2018-07-01T03:28:04.931Z,57.54
2018-07-01T03:28:36.113Z,57.71
2018-07-01T03:29:07.337Z,57.89
2018-07-01T03:29:38.577Z,58.36
2018-07-01T03:30:09.822Z,58.77
2018-07-01T03:30:41.000Z,58.87
2018-07-01T03:31:12.221Z,59.02
2018-07-01T03:31:43.428Z,60.14
2018-07-01T03:32:14.608Z,59.98
2018-07-01T03:32:45.784Z,60.52
2018-07-01T03:33:16.958Z,60.69
2018-07-01T03:33:48.137Z,61.69
2018-07-01T03:34:19.308Z,61.88
2018-07-01T03:34:50.493Z,61.41
2018-07-01T03:35:21.672Z,62.03
2018-07-01T03:35:52.905Z,61.78
2018-07-01T03:36:24.145Z,61.65
2018-07-01T03:36:55.420Z,61.86
2018-07-01T03:37:26.607Z,61.34
2018-07-01T03:37:57.832Z,61.76
2018-07-01T03:38:29.064Z,61.83
2018-07-01T03:39:00.248Z,60.97
2018-07-01T03:39:31.421Z,60.59
2018-07-01T03:40:02.664Z,61.39
2018-07-01T03:40:33.900Z,60.38
2018-07-01T03:41:05.132Z,60.35
2018-07-01T03:41:36.348Z,59.22
2018-07-01T03:42:07.533Z,59.01
2018-07-01T03:42:38.711Z,58.09
2018-07-01T03:43:09.890Z,56.51
2018-07-01T03:43:41.071Z,55.97
2018-07-01T03:44:12.346Z,55.48
2018-07-01T03:44:43.540Z,55.02
2018-07-01T03:45:14.719Z,54.00
2018-07-01T03:45:45.946Z,53.67
2018-07-01T03:46:17.213Z,52.48
2018-07-01T03:46:48.442Z,53.10
2018-07-01T03:47:19.637Z,53.06
2018-07-01T03:47:50.895Z,52.25
2018-07-01T03:48:22.076Z,52.07
2018-07-01T03:48:53.248Z,51.96
2018-07-01T03:49:24.407Z,51.35
2018-07-01T03:49:55.577Z,50.71
2018-07-01T03:50:26.845Z,51.14
2018-07-01T03:50:58.077Z,49.93
2018-07-01T03:51:29.317Z,50.71
2018-07-01T03:52:00.545Z,49.82
2018-07-01T03:52:31.765Z,50.62
2018-07-01T03:53:02.996Z,50.39
2018-07-01T03:53:34.224Z,50.20
2018-07-01T03:54:05.461Z,50.03
2018-07-01T03:54:36.691Z,50.58
2018-07-01T03:55:07.865Z,50.85
2018-07-01T03:55:39.089Z,51.36
2018-07-01T03:56:10.356Z,51.41
2018-07-01T03:56:41.552Z,51.77
2018-07-01T03:57:12.724Z,52.21
2018-07-01T03:57:43.926Z,53.23
2018-07-01T03:58:15.174Z,53.66
2018-07-01T03:58:46.354Z,53.98
2018-07-01T03:59:17.552Z,54.35
2018-07-01T03:59:48.728Z,54.91
2018-07-01T04:00:19.899Z,55.27
2018-07-01T04:00:51.073Z,55.64
2018-07-01T04:01:22.333Z,55.19
2018-07-01T04:01:53.602Z,55.54
2018-07-01T04:02:24.785Z,55.46
2018-07-01T04:02:56.018Z,54.24
2018-07-01T04:03:27.221Z,53.85
2018-07-01T04:03:58.396Z,54.08
2018-07-01T04:04:29.571Z,53.47
2018-07-01T04:05:00.766Z,52.95
2018-07-01T04:05:32.026Z,51.53
2018-07-01T04:06:03.209Z,51.43
2018-07-01T04:06:34.635Z,50.67
2018-07-01T04:07:05.805Z,50.39
2018-07-01T04:07:37.034Z,50.59
2018-07-01T04:08:08.262Z,51.46
2018-07-01T04:08:39.440Z,50.92
2018-07-01T04:09:10.605Z,51.52
2018-07-01T04:09:41.788Z,52.30
2018-07-01T04:10:13.017Z,52.57
2018-07-01T04:10:44.253Z,52.54
2018-07-01T04:11:15.488Z,52.88
2018-07-01T04:11:47.980Z,52.72
2018-07-01T04:12:19.184Z,53.73
2018-07-01T04:12:50.368Z,53.54
2018-07-01T04:13:25.272Z,52.70
2018-07-01T04:13:56.514Z,52.65
2018-07-01T04:14:27.769Z,51.74
2018-07-01T04:15:00.274Z,51.30
2018-07-01T04:15:35.837Z,49.83
2018-07-01T04:16:07.010Z,50.09
2018-07-01T04:16:38.225Z,49.15
2018-07-01T04:17:09.385Z,49.74
2018-07-01T04:17:40.556Z,49.22
2018-07-01T04:18:11.772Z,49.98
2018-07-01T04:18:43.000Z,51.22
2018-07-01T04:19:14.224Z,51.40
2018-07-01T04:19:45.397Z,51.45
2018-07-01T04:20:16.569Z,52.67
2018-07-01T04:20:47.741Z,51.60
2018-07-01T04:21:20.478Z,51.95
2018-07-01T04:21:51.656Z,51.78
2018-07-01T04:22:22.906Z,50.76
2018-07-01T04:22:54.090Z,49.79
2018-07-01T04:23:25.261Z,50.37
2018-07-01T04:23:56.432Z,50.32
2018-07-01T04:24:27.636Z,50.65
2018-07-01T04:24:58.810Z,50.80
2018-07-01T04:25:30.029Z,51.41
2018-07-01T04:26:01.208Z,51.79
2018-07-01T04:26:32.380Z,51.37
2018-07-01T04:27:03.603Z,51.80
2018-07-01T04:27:34.893Z,52.03
2018-07-01T04:28:06.109Z,51.40
2018-07-01T04:28:37.272Z,51.09
2018-07-01T04:29:08.452Z,51.19
2018-07-01T04:29:39.677Z,49.55
2018-07-01T04:30:10.896Z,49.45
2018-07-01T04:30:42.115Z,49.71
2018-07-01T04:31:13.400Z,49.54
2018-07-01T04:31:44.537Z,50.14
2018-07-01T04:32:15.762Z,50.64
2018-07-01T04:32:47.020Z,50.19
2018-07-01T04:33:18.198Z,50.81
2018-07-01T04:33:49.425Z,50.15
2018-07-01T04:34:20.601Z,49.65
2018-07-01T04:34:51.861Z,49.13
2018-07-01T04:35:23.056Z,48.61
2018-07-01T04:35:54.220Z,47.84
2018-07-01T04:36:25.453Z,47.91
2018-07-01T04:36:56.628Z,47.31
2018-07-01T04:37:27.800Z,47.56
2018-07-01T04:37:58.983Z,46.27
2018-07-01T04:38:30.210Z,47.22
2018-07-01T04:39:01.392Z,46.77
2018-07-01T04:39:32.608Z,45.80
2018-07-01T04:40:03.837Z,46.58
2018-07-01T04:40:35.018Z,46.99
2018-07-01T04:41:06.185Z,47.47
2018-07-01T04:41:37.364Z,46.41
2018-07-01T04:42:08.537Z,46.74
2018-07-01T04:42:39.722Z,48.18
2018-07-01T04:43:10.885Z,48.63
2018-07-01T04:43:42.055Z,45.79
2018-07-01T04:44:13.257Z,46.88
2018-07-01T04:44:44.443Z,46.67
2018-07-01T04:45:15.619Z,46.53
2018-07-01T04:45:46.789Z,45.86
2018-07-01T04:46:18.056Z,45.95
2018-07-01T04:46:49.295Z,45.13
2018-07-01T04:47:20.549Z,45.58
2018-07-01T04:47:53.497Z,44.10
2018-07-01T04:48:24.668Z,42.30
2018-07-01T04:49:02.130Z,42.90
2018-07-01T04:49:33.365Z,42.73
2018-07-01T04:50:04.581Z,43.05
2018-07-01T04:50:35.799Z,43.13
2018-07-01T04:51:06.981Z,43.67
2018-07-01T04:51:38.150Z,43.79
2018-07-01T04:52:09.369Z,45.26
2018-07-01T04:52:40.545Z,45.13
2018-07-01T04:53:11.720Z,45.63
2018-07-01T04:53:42.886Z,45.85
2018-07-01T04:54:14.053Z,45.88
2018-07-01T04:54:45.234Z,46.23
2018-07-01T04:55:16.495Z,46.29
2018-07-01T04:55:47.663Z,46.17
2018-07-01T04:56:18.844Z,45.62
2018-07-01T04:56:50.025Z,46.30
2018-07-01T04:57:21.204Z,46.27
2018-07-01T04:57:52.493Z,45.14
2018-07-01T04:58:23.721Z,43.85
2018-07-01T04:58:54.912Z,43.67
2018-07-01T04:59:26.084Z,43.68
2018-07-01T04:59:57.320Z,42.76
2018-07-01T05:00:28.498Z,43.03
2018-07-01T05:00:59.667Z,42.68
2018-07-01T05:01:30.900Z,41.64
2018-07-01T05:02:02.113Z,42.58
2018-07-01T05:02:33.353Z,43.07
2018-07-01T05:03:04.504Z,43.67
2018-07-01T05:03:35.681Z,43.70
2018-07-01T05:04:06.877Z,42.02
2018-07-01T05:04:38.056Z,43.50
2018-07-01T05:05:09.337Z,41.25
2018-07-01T05:05:40.568Z,40.47
2018-07-01T05:06:11.744Z,40.19
2018-07-01T05:06:42.964Z,40.51
2018-07-01T05:07:14.209Z,40.65
2018-07-01T05:07:45.461Z,39.28
2018-07-01T05:08:16.685Z,39.08
2018-07-01T05:08:47.868Z,38.33
2018-07-01T05:09:19.040Z,38.13
2018-07-01T05:09:50.224Z,35.77
2018-07-01T05:10:21.400Z,35.00
2018-07-01T05:10:52.667Z,35.52
2018-07-01T05:11:23.844Z,35.40
2018-07-01T05:11:55.017Z,35.69
2018-07-01T05:12:26.193Z,34.39
2018-07-01T05:12:57.364Z,34.60
2018-07-01T05:13:28.534Z,35.28
2018-07-01T05:13:59.752Z,35.82
2018-07-01T05:14:30.929Z,34.32
2018-07-01T05:15:02.169Z,34.84
2018-07-01T05:15:33.401Z,34.74
2018-07-01T05:16:04.593Z,33.63
2018-07-01T05:16:35.818Z,33.91
2018-07-01T05:17:07.073Z,32.14
2018-07-01T05:17:38.285Z,32.20
2018-07-01T05:18:09.464Z,33.04
2018-07-01T05:18:40.686Z,33.87
2018-07-01T05:19:11.871Z,33.42
2018-07-01T05:19:43.049Z,33.01
2018-07-01T05:20:14.235Z,33.61
2018-07-01T05:20:45.412Z,33.73
2018-07-01T05:21:16.682Z,33.96
2018-07-01T05:21:47.884Z,33.25
2018-07-01T05:22:19.118Z,33.88
2018-07-01T05:22:50.370Z,33.64
2018-07-01T05:23:21.570Z,32.17
2018-07-01T05:23:52.817Z,32.65
2018-07-01T05:24:24.013Z,32.62
2018-07-01T05:24:55.213Z,32.46
2018-07-01T05:25:26.480Z,31.88
2018-07-01T05:25:57.668Z,31.82
2018-07-01T05:26:28.901Z,32.12
2018-07-01T05:27:00.154Z,32.11
2018-07-01T05:27:31.433Z,31.72
2018-07-01T05:28:02.633Z,31.54
2018-07-01T05:28:33.821Z,30.72
2018-07-01T05:29:05.009Z,29.44
2018-07-01T05:29:36.193Z,30.57
2018-07-01T05:30:07.429Z,28.69
2018-07-01T05:30:38.715Z,29.80
2018-07-01T05:31:09.913Z,30.75
2018-07-01T05:31:41.149Z,30.59
2018-07-01T05:32:12.362Z,32.64
2018-07-01T05:32:43.593Z,30.53
2018-07-01T05:33:14.825Z,30.62
2018-07-01T05:33:46.094Z,33.37
2018-07-01T05:34:17.232Z,32.29
2018-07-01T05:34:48.428Z,30.99
2018-07-01T05:35:19.708Z,30.11
2018-07-01T05:35:51.161Z,30.65
2018-07-01T05:36:22.352Z,30.71
2018-07-01T05:36:53.533Z,31.19
2018-07-01T05:37:24.772Z,31.38
2018-07-01T05:37:56.009Z,31.50
2018-07-01T05:38:27.289Z,31.87
2018-07-01T05:38:58.516Z,32.19
2018-07-01T05:39:29.769Z,32.75
2018-07-01T05:40:00.952Z,32.43
2018-07-01T05:40:32.137Z,32.62
2018-07-01T05:41:03.437Z,32.67
2018-07-01T05:41:34.628Z,32.54
2018-07-01T05:42:05.840Z,31.65
2018-07-01T05:42:37.022Z,32.01
2018-07-01T05:43:08.262Z,31.61
2018-07-01T05:43:39.461Z,31.97
2018-07-01T05:44:10.644Z,31.82
2018-07-01T05:44:41.831Z,31.97
2018-07-01T05:45:13.066Z,31.57
2018-07-01T05:45:44.258Z,31.93
2018-07-01T05:46:15.490Z,32.11
2018-07-01T05:46:46.681Z,31.03
2018-07-01T05:47:17.869Z,30.57
2018-07-01T05:47:49.096Z,31.98
2018-07-01T05:48:20.292Z,29.00
2018-07-01T05:48:51.473Z,30.19
2018-07-01T05:49:22.678Z,31.69
2018-07-01T05:49:53.873Z,32.02
2018-07-01T05:50:25.054Z,32.66
2018-07-01T05:50:56.256Z,33.45
2018-07-01T05:51:27.550Z,32.82
2018-07-01T05:51:58.802Z,31.28
2018-07-01T05:52:29.999Z,29.57
2018-07-01T05:53:01.201Z,28.50
2018-07-01T05:53:32.433Z,31.84
2018-07-01T05:54:03.667Z,31.47
2018-07-01T05:54:34.885Z,28.30
2018-07-01T05:55:06.069Z,31.29
2018-07-01T05:55:37.252Z,31.54
2018-07-01T05:56:08.433Z,32.19
2018-07-01T05:56:39.683Z,31.97
2018-07-01T05:57:10.931Z,32.82
2018-07-01T05:57:42.132Z,32.05
2018-07-01T05:58:13.307Z,33.13
2018-07-01T05:58:44.494Z,31.82
2018-07-01T05:59:15.727Z,31.65
2018-07-01T05:59:46.908Z,32.19
2018-07-01T06:00:18.090Z,33.54
2018-07-01T06:00:49.341Z,33.58
2018-07-01T06:01:20.565Z,32.56
2018-07-01T06:01:51.784Z,32.97
2018-07-01T06:02:23.016Z,33.38
2018-07-01T06:02:54.209Z,33.03
2018-07-01T06:03:26.567Z,33.64
2018-07-01T06:03:57.764Z,33.71
2018-07-01T06:04:29.016Z,33.65
2018-07-01T06:05:00.212Z,32.95
2018-07-01T06:05:31.441Z,33.22
2018-07-01T06:06:02.682Z,33.40
2018-07-01T06:06:33.961Z,33.21
2018-07-01T06:07:05.163Z,34.05
2018-07-01T06:07:36.384Z,33.64
2018-07-01T06:08:07.636Z,33.74
2018-07-01T06:08:38.888Z,31.64
2018-07-01T06:09:10.088Z,33.93
2018-07-01T06:09:41.325Z,34.11
2018-07-01T06:10:12.534Z,33.62
2018-07-01T06:10:43.721Z,34.91
2018-07-01T06:11:14.909Z,34.67
2018-07-01T06:11:46.140Z,34.60
2018-07-01T06:12:17.342Z,33.03
2018-07-01T06:12:48.553Z,32.94
2018-07-01T06:13:19.821Z,33.84
2018-07-01T06:13:51.083Z,33.92
2018-07-01T06:14:22.269Z,32.38
2018-07-01T06:14:53.500Z,33.38
2018-07-01T06:15:24.696Z,32.16
2018-07-01T06:15:55.898Z,31.56
2018-07-01T06:16:27.117Z,27.24
2018-07-01T06:16:58.386Z,29.98
2018-07-01T06:17:29.693Z,30.31
2018-07-01T06:18:00.946Z,29.26
2018-07-01T06:18:32.143Z,30.35
2018-07-01T06:19:03.324Z,29.67
2018-07-01T06:19:34.557Z,30.07
2018-07-01T06:20:05.753Z,31.20
2018-07-01T06:20:36.944Z,29.62
2018-07-01T06:21:08.189Z,30.71
2018-07-01T06:21:39.386Z,30.09
2018-07-01T06:22:11.650Z,28.79
2018-07-01T06:22:42.885Z,30.18
2018-07-01T06:23:14.066Z,29.81
2018-07-01T06:23:45.253Z,28.90
2018-07-01T06:24:16.437Z,28.52
2018-07-01T06:24:47.608Z,27.18
2018-07-01T06:25:18.917Z,26.64
2018-07-01T06:25:50.109Z,27.87
2018-07-01T06:26:21.280Z,27.67
2018-07-01T06:26:52.518Z,26.05
2018-07-01T06:27:23.740Z,26.70
2018-07-01T06:27:54.969Z,24.77
2018-07-01T06:28:26.210Z,26.35
2018-07-01T06:28:57.437Z,26.40
2018-07-01T06:29:28.664Z,25.32
2018-07-01T06:29:59.899Z,26.90
2018-07-01T06:30:31.118Z,25.84
2018-07-01T06:31:02.390Z,26.57
2018-07-01T06:31:33.770Z,25.83
2018-07-01T06:32:04.969Z,25.77
2018-07-01T06:32:36.229Z,25.19
2018-07-01T06:33:07.442Z,24.27
2018-07-01T06:33:38.638Z,24.80
2018-07-01T06:34:09.865Z,24.55
2018-07-01T06:34:41.886Z,24.74
2018-07-01T06:35:13.117Z,26.02
2018-07-01T06:35:44.380Z,25.80
2018-07-01T06:36:15.617Z,26.42
2018-07-01T06:36:46.857Z,26.31
2018-07-01T06:37:18.102Z,28.06
2018-07-01T06:37:49.294Z,26.88
2018-07-01T06:38:20.480Z,24.98
2018-07-01T06:38:51.652Z,25.57
2018-07-01T06:39:22.897Z,26.77
2018-07-01T06:39:54.301Z,24.60
2018-07-01T06:40:25.581Z,26.04
2018-07-01T06:40:56.791Z,25.51
2018-07-01T06:41:28.021Z,24.62
2018-07-01T06:41:59.298Z,25.51
2018-07-01T06:42:30.524Z,24.97
2018-07-01T06:43:01.712Z,24.53
2018-07-01T06:43:32.901Z,25.54
2018-07-01T06:44:04.155Z,26.47
2018-07-01T06:44:35.386Z,26.25
2018-07-01T06:45:06.585Z,25.80
2018-07-01T06:45:37.796Z,25.07
2018-07-01T06:46:09.213Z,25.83
2018-07-01T06:46:40.403Z,26.69
2018-07-01T06:47:11.583Z,24.87
2018-07-01T06:47:42.779Z,25.48
2018-07-01T06:48:13.980Z,25.88
2018-07-01T06:48:45.833Z,25.95
2018-07-01T06:49:17.081Z,25.82
2018-07-01T06:49:48.322Z,26.25
2018-07-01T06:50:19.508Z,25.00
2018-07-01T06:50:50.684Z,27.93
2018-07-01T06:51:21.860Z,25.66
2018-07-01T06:51:53.098Z,24.84
2018-07-01T06:52:24.289Z,25.39